sensor_id;sensor_type;location;lat;lon;timestamp;P1;durP1;ratioP1;P2;durP2;ratioP2
13641;SDS011;6894;52.196;9.904;2023-08-31T00:01:55;10.07;;;9.07;;
13641;SDS011;6894;52.196;9.904;2023-08-31T00:04:23;9.13;;;8.27;;
13641;SDS011;6894;52.196;9.904;2023-08-31T00:06:50;10.03;;;8.50;;
13641;SDS011;6894;52.196;9.904;2023-08-31T00:09:16;8.57;;;7.77;;
13641;SDS011;6894;52.196;9.904;2023-08-31T00:11:44;10.23;;;8.60;;
13641;SDS011;6894;52.196;9.904;2023-08-31T00:14:10;8.53;;;7.57;;
13641;SDS011;6894;52.196;9.904;2023-08-31T00:16:37;8.30;;;7.50;;
13641;SDS011;6894;52.196;9.904;2023-08-31T00:19:04;7.77;;;7.03;;
13641;SDS011;6894;52.196;9.904;2023-08-31T00:21:32;7.77;;;6.93;;
13641;SDS011;6894;52.196;9.904;2023-08-31T00:23:58;7.60;;;6.90;;
13641;SDS011;6894;52.196;9.904;2023-08-31T00:26:25;7.70;;;6.57;;
13641;SDS011;6894;52.196;9.904;2023-08-31T00:28:52;9.57;;;8.03;;
13641;SDS011;6894;52.196;9.904;2023-08-31T00:31:19;11.17;;;9.23;;
13641;SDS011;6894;52.196;9.904;2023-08-31T00:33:46;13.60;;;8.30;;
13641;SDS011;6894;52.196;9.904;2023-08-31T00:36:13;10.43;;;8.53;;
13641;SDS011;6894;52.196;9.904;2023-08-31T00:38:41;11.90;;;10.30;;
13641;SDS011;6894;52.196;9.904;2023-08-31T00:41:08;10.80;;;9.40;;
13641;SDS011;6894;52.196;9.904;2023-08-31T00:43:35;11.60;;;10.37;;
13641;SDS011;6894;52.196;9.904;2023-08-31T00:46:03;12.27;;;10.87;;
13641;SDS011;6894;52.196;9.904;2023-08-31T00:48:29;11.00;;;9.90;;
13641;SDS011;6894;52.196;9.904;2023-08-31T00:50:56;12.17;;;9.77;;
13641;SDS011;6894;52.196;9.904;2023-08-31T00:53:23;12.87;;;10.70;;
13641;SDS011;6894;52.196;9.904;2023-08-31T00:55:51;11.47;;;10.30;;
13641;SDS011;6894;52.196;9.904;2023-08-31T00:58:18;14.90;;;11.20;;
13641;SDS011;6894;52.196;9.904;2023-08-31T01:00:46;11.17;;;9.97;;
13641;SDS011;6894;52.196;9.904;2023-08-31T01:03:21;11.67;;;10.57;;
13641;SDS011;6894;52.196;9.904;2023-08-31T01:05:55;13.10;;;10.83;;
13641;SDS011;6894;52.196;9.904;2023-08-31T01:08:31;12.73;;;11.50;;
13641;SDS011;6894;52.196;9.904;2023-08-31T01:11:18;12.83;;;11.43;;
13641;SDS011;6894;52.196;9.904;2023-08-31T01:13:53;11.03;;;9.90;;
13641;SDS011;6894;52.196;9.904;2023-08-31T01:16:28;12.10;;;10.17;;
13641;SDS011;6894;52.196;9.904;2023-08-31T01:18:56;11.20;;;10.10;;
13641;SDS011;6894;52.196;9.904;2023-08-31T01:21:24;12.20;;;10.97;;
13641;SDS011;6894;52.196;9.904;2023-08-31T01:24:01;11.87;;;10.67;;
13641;SDS011;6894;52.196;9.904;2023-08-31T01:26:29;12.10;;;10.10;;
13641;SDS011;6894;52.196;9.904;2023-08-31T01:28:56;11.13;;;10.00;;
13641;SDS011;6894;52.196;9.904;2023-08-31T01:31:23;10.77;;;9.53;;
13641;SDS011;6894;52.196;9.904;2023-08-31T01:33:50;10.47;;;9.37;;
13641;SDS011;6894;52.196;9.904;2023-08-31T01:36:18;15.60;;;11.20;;
13641;SDS011;6894;52.196;9.904;2023-08-31T01:38:50;13.10;;;10.83;;
13641;SDS011;6894;52.196;9.904;2023-08-31T01:41:25;11.53;;;9.80;;
13641;SDS011;6894;52.196;9.904;2023-08-31T01:43:54;13.90;;;9.93;;
13641;SDS011;6894;52.196;9.904;2023-08-31T01:46:22;14.97;;;11.67;;
13641;SDS011;6894;52.196;9.904;2023-08-31T01:48:49;11.97;;;10.77;;
13641;SDS011;6894;52.196;9.904;2023-08-31T01:51:16;11.67;;;10.23;;
13641;SDS011;6894;52.196;9.904;2023-08-31T01:53:43;13.23;;;10.37;;
13641;SDS011;6894;52.196;9.904;2023-08-31T01:56:10;13.47;;;10.53;;
13641;SDS011;6894;52.196;9.904;2023-08-31T01:58:40;15.03;;;10.53;;
13641;SDS011;6894;52.196;9.904;2023-08-31T02:01:07;11.43;;;10.33;;
13641;SDS011;6894;52.196;9.904;2023-08-31T02:03:33;13.03;;;11.37;;
13641;SDS011;6894;52.196;9.904;2023-08-31T02:06:00;13.13;;;10.47;;
13641;SDS011;6894;52.196;9.904;2023-08-31T02:08:27;14.43;;;12.03;;
13641;SDS011;6894;52.196;9.904;2023-08-31T02:10:54;10.97;;;9.90;;
13641;SDS011;6894;52.196;9.904;2023-08-31T02:13:20;18.17;;;11.43;;
13641;SDS011;6894;52.196;9.904;2023-08-31T02:15:52;15.27;;;10.77;;
13641;SDS011;6894;52.196;9.904;2023-08-31T02:18:18;16.20;;;12.27;;
13641;SDS011;6894;52.196;9.904;2023-08-31T02:20:45;13.80;;;11.70;;
13641;SDS011;6894;52.196;9.904;2023-08-31T02:23:12;17.10;;;11.90;;
13641;SDS011;6894;52.196;9.904;2023-08-31T02:25:39;12.70;;;11.43;;
13641;SDS011;6894;52.196;9.904;2023-08-31T02:28:06;11.73;;;10.60;;
13641;SDS011;6894;52.196;9.904;2023-08-31T02:30:32;16.80;;;12.40;;
13641;SDS011;6894;52.196;9.904;2023-08-31T02:33:00;13.80;;;10.10;;
13641;SDS011;6894;52.196;9.904;2023-08-31T02:35:27;14.17;;;11.03;;
13641;SDS011;6894;52.196;9.904;2023-08-31T02:37:54;13.83;;;10.53;;
13641;SDS011;6894;52.196;9.904;2023-08-31T02:40:20;15.13;;;11.33;;
13641;SDS011;6894;52.196;9.904;2023-08-31T02:42:49;13.83;;;11.17;;
13641;SDS011;6894;52.196;9.904;2023-08-31T02:45:17;13.70;;;10.47;;
13641;SDS011;6894;52.196;9.904;2023-08-31T02:47:43;15.20;;;11.20;;
13641;SDS011;6894;52.196;9.904;2023-08-31T02:50:11;12.80;;;11.03;;
13641;SDS011;6894;52.196;9.904;2023-08-31T02:52:39;15.73;;;11.00;;
13641;SDS011;6894;52.196;9.904;2023-08-31T02:55:07;11.33;;;10.03;;
13641;SDS011;6894;52.196;9.904;2023-08-31T02:57:34;12.47;;;11.27;;
13641;SDS011;6894;52.196;9.904;2023-08-31T03:00:00;13.70;;;10.43;;
13641;SDS011;6894;52.196;9.904;2023-08-31T03:02:28;12.53;;;9.53;;
13641;SDS011;6894;52.196;9.904;2023-08-31T03:04:55;13.20;;;10.20;;
13641;SDS011;6894;52.196;9.904;2023-08-31T03:07:23;14.77;;;10.47;;
13641;SDS011;6894;52.196;9.904;2023-08-31T03:09:50;11.40;;;10.30;;
13641;SDS011;6894;52.196;9.904;2023-08-31T03:12:17;11.60;;;10.03;;
13641;SDS011;6894;52.196;9.904;2023-08-31T03:14:44;10.17;;;9.10;;
13641;SDS011;6894;52.196;9.904;2023-08-31T03:17:10;11.37;;;9.60;;
13641;SDS011;6894;52.196;9.904;2023-08-31T03:19:37;16.67;;;9.67;;
13641;SDS011;6894;52.196;9.904;2023-08-31T03:22:04;11.70;;;8.93;;
13641;SDS011;6894;52.196;9.904;2023-08-31T03:24:32;13.43;;;9.43;;
13641;SDS011;6894;52.196;9.904;2023-08-31T03:26:59;10.57;;;9.27;;
13641;SDS011;6894;52.196;9.904;2023-08-31T03:29:26;12.50;;;10.10;;
13641;SDS011;6894;52.196;9.904;2023-08-31T03:31:54;10.13;;;9.10;;
13641;SDS011;6894;52.196;9.904;2023-08-31T03:34:21;12.00;;;9.20;;
13641;SDS011;6894;52.196;9.904;2023-08-31T03:36:48;10.60;;;9.43;;
13641;SDS011;6894;52.196;9.904;2023-08-31T03:39:15;19.47;;;10.47;;
13641;SDS011;6894;52.196;9.904;2023-08-31T03:41:43;9.50;;;8.60;;
13641;SDS011;6894;52.196;9.904;2023-08-31T03:44:10;11.67;;;8.93;;
13641;SDS011;6894;52.196;9.904;2023-08-31T03:46:36;11.63;;;8.47;;
13641;SDS011;6894;52.196;9.904;2023-08-31T03:49:03;10.30;;;7.83;;
13641;SDS011;6894;52.196;9.904;2023-08-31T03:51:30;10.87;;;8.43;;
13641;SDS011;6894;52.196;9.904;2023-08-31T03:53:57;11.50;;;9.00;;
13641;SDS011;6894;52.196;9.904;2023-08-31T03:56:23;11.37;;;8.50;;
13641;SDS011;6894;52.196;9.904;2023-08-31T03:58:51;11.33;;;8.60;;
13641;SDS011;6894;52.196;9.904;2023-08-31T04:01:18;10.07;;;8.53;;
13641;SDS011;6894;52.196;9.904;2023-08-31T04:03:45;13.20;;;8.97;;
13641;SDS011;6894;52.196;9.904;2023-08-31T04:06:12;11.73;;;8.23;;
13641;SDS011;6894;52.196;9.904;2023-08-31T04:08:38;11.97;;;8.93;;
13641;SDS011;6894;52.196;9.904;2023-08-31T04:11:05;9.37;;;8.37;;
13641;SDS011;6894;52.196;9.904;2023-08-31T04:13:32;9.53;;;8.40;;
13641;SDS011;6894;52.196;9.904;2023-08-31T04:16:00;10.60;;;8.73;;
13641;SDS011;6894;52.196;9.904;2023-08-31T04:18:27;12.67;;;9.10;;
13641;SDS011;6894;52.196;9.904;2023-08-31T04:20:54;10.27;;;9.23;;
13641;SDS011;6894;52.196;9.904;2023-08-31T04:23:21;13.23;;;9.83;;
13641;SDS011;6894;52.196;9.904;2023-08-31T04:25:47;12.90;;;10.27;;
13641;SDS011;6894;52.196;9.904;2023-08-31T04:28:16;15.37;;;9.97;;
13641;SDS011;6894;52.196;9.904;2023-08-31T04:30:43;12.17;;;10.30;;
13641;SDS011;6894;52.196;9.904;2023-08-31T04:33:11;16.27;;;10.40;;
13641;SDS011;6894;52.196;9.904;2023-08-31T04:35:38;14.97;;;11.30;;
13641;SDS011;6894;52.196;9.904;2023-08-31T04:38:04;14.33;;;10.37;;
13641;SDS011;6894;52.196;9.904;2023-08-31T04:40:31;17.87;;;9.90;;
13641;SDS011;6894;52.196;9.904;2023-08-31T04:42:58;12.13;;;9.90;;
13641;SDS011;6894;52.196;9.904;2023-08-31T04:45:25;14.77;;;10.07;;
13641;SDS011;6894;52.196;9.904;2023-08-31T04:47:52;10.60;;;9.27;;
13641;SDS011;6894;52.196;9.904;2023-08-31T04:50:20;11.93;;;10.07;;
13641;SDS011;6894;52.196;9.904;2023-08-31T04:52:47;13.53;;;10.90;;
13641;SDS011;6894;52.196;9.904;2023-08-31T04:55:13;13.10;;;11.27;;
13641;SDS011;6894;52.196;9.904;2023-08-31T04:57:40;14.07;;;10.90;;
13641;SDS011;6894;52.196;9.904;2023-08-31T05:00:07;15.13;;;13.10;;
13641;SDS011;6894;52.196;9.904;2023-08-31T05:02:35;16.43;;;12.73;;
13641;SDS011;6894;52.196;9.904;2023-08-31T05:05:02;16.30;;;13.27;;
13641;SDS011;6894;52.196;9.904;2023-08-31T05:07:31;18.73;;;13.73;;
13641;SDS011;6894;52.196;9.904;2023-08-31T05:09:58;19.20;;;13.70;;
13641;SDS011;6894;52.196;9.904;2023-08-31T05:12:25;17.97;;;13.87;;
13641;SDS011;6894;52.196;9.904;2023-08-31T05:14:51;17.80;;;14.67;;
13641;SDS011;6894;52.196;9.904;2023-08-31T05:17:18;16.43;;;14.40;;
13641;SDS011;6894;52.196;9.904;2023-08-31T05:19:45;18.87;;;14.53;;
13641;SDS011;6894;52.196;9.904;2023-08-31T05:22:12;16.87;;;15.03;;
13641;SDS011;6894;52.196;9.904;2023-08-31T05:24:40;15.57;;;12.70;;
13641;SDS011;6894;52.196;9.904;2023-08-31T05:27:07;15.13;;;13.30;;
13641;SDS011;6894;52.196;9.904;2023-08-31T05:29:34;16.67;;;14.70;;
13641;SDS011;6894;52.196;9.904;2023-08-31T05:32:00;15.17;;;13.73;;
13641;SDS011;6894;52.196;9.904;2023-08-31T05:34:27;16.83;;;13.30;;
13641;SDS011;6894;52.196;9.904;2023-08-31T05:36:55;15.53;;;13.77;;
13641;SDS011;6894;52.196;9.904;2023-08-31T05:39:22;17.03;;;14.30;;
13641;SDS011;6894;52.196;9.904;2023-08-31T05:41:50;16.93;;;13.43;;
13641;SDS011;6894;52.196;9.904;2023-08-31T05:44:17;18.60;;;14.53;;
13641;SDS011;6894;52.196;9.904;2023-08-31T05:46:44;16.03;;;14.27;;
13641;SDS011;6894;52.196;9.904;2023-08-31T05:49:10;17.97;;;14.67;;
13641;SDS011;6894;52.196;9.904;2023-08-31T05:51:37;17.00;;;14.40;;
13641;SDS011;6894;52.196;9.904;2023-08-31T05:54:04;14.73;;;13.23;;
13641;SDS011;6894;52.196;9.904;2023-08-31T05:56:35;16.93;;;13.13;;
13641;SDS011;6894;52.196;9.904;2023-08-31T05:59:04;16.27;;;13.37;;
13641;SDS011;6894;52.196;9.904;2023-08-31T06:01:30;14.37;;;12.57;;
13641;SDS011;6894;52.196;9.904;2023-08-31T06:03:57;15.97;;;12.90;;
13641;SDS011;6894;52.196;9.904;2023-08-31T06:06:24;18.87;;;14.00;;
13641;SDS011;6894;52.196;9.904;2023-08-31T06:08:51;14.67;;;13.17;;
13641;SDS011;6894;52.196;9.904;2023-08-31T06:11:18;14.87;;;13.37;;
13641;SDS011;6894;52.196;9.904;2023-08-31T06:13:46;14.67;;;13.10;;
13641;SDS011;6894;52.196;9.904;2023-08-31T06:16:14;14.63;;;13.40;;
13641;SDS011;6894;52.196;9.904;2023-08-31T06:18:41;16.60;;;14.53;;
13641;SDS011;6894;52.196;9.904;2023-08-31T06:21:08;15.10;;;13.70;;
13641;SDS011;6894;52.196;9.904;2023-08-31T06:23:35;17.10;;;15.40;;
13641;SDS011;6894;52.196;9.904;2023-08-31T06:26:02;15.80;;;14.33;;
13641;SDS011;6894;52.196;9.904;2023-08-31T06:28:29;16.20;;;14.50;;
13641;SDS011;6894;52.196;9.904;2023-08-31T06:30:56;15.30;;;13.83;;
13641;SDS011;6894;52.196;9.904;2023-08-31T06:33:24;15.17;;;13.67;;
13641;SDS011;6894;52.196;9.904;2023-08-31T06:35:51;17.07;;;13.73;;
13641;SDS011;6894;52.196;9.904;2023-08-31T06:38:17;16.83;;;15.17;;
13641;SDS011;6894;52.196;9.904;2023-08-31T06:40:44;15.17;;;13.67;;
13641;SDS011;6894;52.196;9.904;2023-08-31T06:43:12;14.97;;;13.47;;
13641;SDS011;6894;52.196;9.904;2023-08-31T06:45:39;14.87;;;12.50;;
13641;SDS011;6894;52.196;9.904;2023-08-31T06:48:06;14.77;;;13.27;;
13641;SDS011;6894;52.196;9.904;2023-08-31T06:50:35;13.63;;;12.47;;
13641;SDS011;6894;52.196;9.904;2023-08-31T06:53:01;13.70;;;12.27;;
13641;SDS011;6894;52.196;9.904;2023-08-31T06:55:29;11.53;;;10.53;;
13641;SDS011;6894;52.196;9.904;2023-08-31T06:57:57;10.77;;;9.70;;
13641;SDS011;6894;52.196;9.904;2023-08-31T07:00:23;9.40;;;8.50;;
13641;SDS011;6894;52.196;9.904;2023-08-31T07:02:50;9.37;;;8.30;;
13641;SDS011;6894;52.196;9.904;2023-08-31T07:05:18;9.33;;;8.53;;
13641;SDS011;6894;52.196;9.904;2023-08-31T07:07:51;8.40;;;7.70;;
13641;SDS011;6894;52.196;9.904;2023-08-31T07:10:18;9.00;;;8.20;;
13641;SDS011;6894;52.196;9.904;2023-08-31T07:12:45;7.77;;;7.07;;
13641;SDS011;6894;52.196;9.904;2023-08-31T07:15:12;7.50;;;6.80;;
13641;SDS011;6894;52.196;9.904;2023-08-31T07:17:39;7.63;;;6.90;;
13641;SDS011;6894;52.196;9.904;2023-08-31T07:20:06;7.40;;;6.77;;
13641;SDS011;6894;52.196;9.904;2023-08-31T07:22:34;6.97;;;6.13;;
13641;SDS011;6894;52.196;9.904;2023-08-31T07:25:02;8.20;;;7.40;;
13641;SDS011;6894;52.196;9.904;2023-08-31T07:27:31;6.33;;;5.57;;
13641;SDS011;6894;52.196;9.904;2023-08-31T07:29:58;7.70;;;6.90;;
13641;SDS011;6894;52.196;9.904;2023-08-31T07:32:25;6.67;;;6.07;;
13641;SDS011;6894;52.196;9.904;2023-08-31T07:34:52;8.30;;;6.67;;
13641;SDS011;6894;52.196;9.904;2023-08-31T07:37:19;6.37;;;5.77;;
13641;SDS011;6894;52.196;9.904;2023-08-31T07:39:45;7.30;;;6.60;;
13641;SDS011;6894;52.196;9.904;2023-08-31T07:42:14;6.70;;;6.20;;
13641;SDS011;6894;52.196;9.904;2023-08-31T07:44:40;7.73;;;7.03;;
13641;SDS011;6894;52.196;9.904;2023-08-31T07:47:09;6.60;;;6.00;;
13641;SDS011;6894;52.196;9.904;2023-08-31T07:49:36;6.60;;;6.00;;
13641;SDS011;6894;52.196;9.904;2023-08-31T07:52:03;7.07;;;5.77;;
13641;SDS011;6894;52.196;9.904;2023-08-31T07:54:30;7.20;;;6.50;;
13641;SDS011;6894;52.196;9.904;2023-08-31T07:56:57;7.70;;;6.20;;
13641;SDS011;6894;52.196;9.904;2023-08-31T07:59:25;6.47;;;5.87;;
13641;SDS011;6894;52.196;9.904;2023-08-31T08:01:52;5.70;;;5.20;;
13641;SDS011;6894;52.196;9.904;2023-08-31T08:04:19;6.00;;;5.50;;
13641;SDS011;6894;52.196;9.904;2023-08-31T08:06:46;5.43;;;4.93;;
13641;SDS011;6894;52.196;9.904;2023-08-31T08:09:15;6.90;;;4.43;;
13641;SDS011;6894;52.196;9.904;2023-08-31T08:11:42;7.57;;;5.47;;
13641;SDS011;6894;52.196;9.904;2023-08-31T08:14:09;6.03;;;4.87;;
13641;SDS011;6894;52.196;9.904;2023-08-31T08:16:37;4.60;;;4.20;;
13641;SDS011;6894;52.196;9.904;2023-08-31T08:19:05;4.83;;;4.07;;
13641;SDS011;6894;52.196;9.904;2023-08-31T08:21:33;4.43;;;3.43;;
13641;SDS011;6894;52.196;9.904;2023-08-31T08:24:00;4.20;;;3.80;;
13641;SDS011;6894;52.196;9.904;2023-08-31T08:26:26;3.97;;;3.63;;
13641;SDS011;6894;52.196;9.904;2023-08-31T08:28:53;4.47;;;3.93;;
13641;SDS011;6894;52.196;9.904;2023-08-31T08:31:20;4.03;;;3.67;;
13641;SDS011;6894;52.196;9.904;2023-08-31T08:33:48;4.53;;;4.13;;
13641;SDS011;6894;52.196;9.904;2023-08-31T08:36:15;5.80;;;3.90;;
13641;SDS011;6894;52.196;9.904;2023-08-31T08:38:41;4.43;;;3.90;;
13641;SDS011;6894;52.196;9.904;2023-08-31T08:41:08;5.70;;;4.87;;
13641;SDS011;6894;52.196;9.904;2023-08-31T08:43:36;5.00;;;4.53;;
13641;SDS011;6894;52.196;9.904;2023-08-31T08:46:05;4.73;;;4.33;;
13641;SDS011;6894;52.196;9.904;2023-08-31T08:48:33;4.37;;;3.97;;
13641;SDS011;6894;52.196;9.904;2023-08-31T08:51:02;5.20;;;3.90;;
13641;SDS011;6894;52.196;9.904;2023-08-31T08:53:29;4.43;;;4.03;;
13641;SDS011;6894;52.196;9.904;2023-08-31T08:55:56;4.43;;;3.70;;
13641;SDS011;6894;52.196;9.904;2023-08-31T08:58:24;5.80;;;4.50;;
13641;SDS011;6894;52.196;9.904;2023-08-31T09:00:50;3.60;;;3.30;;
13641;SDS011;6894;52.196;9.904;2023-08-31T09:03:20;3.97;;;3.43;;
13641;SDS011;6894;52.196;9.904;2023-08-31T09:05:47;3.47;;;3.13;;
13641;SDS011;6894;52.196;9.904;2023-08-31T09:08:15;2.87;;;2.67;;
13641;SDS011;6894;52.196;9.904;2023-08-31T09:10:42;4.50;;;2.97;;
13641;SDS011;6894;52.196;9.904;2023-08-31T09:13:10;3.20;;;2.90;;
13641;SDS011;6894;52.196;9.904;2023-08-31T09:15:42;4.13;;;2.80;;
13641;SDS011;6894;52.196;9.904;2023-08-31T09:18:14;3.40;;;2.80;;
13641;SDS011;6894;52.196;9.904;2023-08-31T09:20:47;3.47;;;2.93;;
13641;SDS011;6894;52.196;9.904;2023-08-31T09:23:16;4.57;;;4.03;;
13641;SDS011;6894;52.196;9.904;2023-08-31T09:25:44;5.07;;;3.33;;
13641;SDS011;6894;52.196;9.904;2023-08-31T09:28:13;4.80;;;3.13;;
13641;SDS011;6894;52.196;9.904;2023-08-31T09:30:40;3.57;;;3.13;;
13641;SDS011;6894;52.196;9.904;2023-08-31T09:33:07;4.10;;;2.90;;
13641;SDS011;6894;52.196;9.904;2023-08-31T09:35:38;3.70;;;3.40;;
13641;SDS011;6894;52.196;9.904;2023-08-31T09:38:09;3.57;;;3.30;;
13641;SDS011;6894;52.196;9.904;2023-08-31T09:40:37;4.30;;;3.03;;
13641;SDS011;6894;52.196;9.904;2023-08-31T09:43:04;3.87;;;3.10;;
13641;SDS011;6894;52.196;9.904;2023-08-31T09:45:32;3.20;;;2.90;;
13641;SDS011;6894;52.196;9.904;2023-08-31T09:48:00;3.30;;;2.23;;
13641;SDS011;6894;52.196;9.904;2023-08-31T09:50:28;3.33;;;3.00;;
13641;SDS011;6894;52.196;9.904;2023-08-31T09:52:55;3.03;;;2.40;;
13641;SDS011;6894;52.196;9.904;2023-08-31T09:55:27;3.80;;;2.40;;
13641;SDS011;6894;52.196;9.904;2023-08-31T09:57:56;3.47;;;2.50;;
13641;SDS011;6894;52.196;9.904;2023-08-31T10:00:24;5.07;;;2.90;;
13641;SDS011;6894;52.196;9.904;2023-08-31T10:02:52;2.93;;;2.40;;
13641;SDS011;6894;52.196;9.904;2023-08-31T10:05:21;3.33;;;2.30;;
13641;SDS011;6894;52.196;9.904;2023-08-31T10:07:48;3.53;;;2.13;;
13641;SDS011;6894;52.196;9.904;2023-08-31T10:10:16;2.60;;;2.40;;
13641;SDS011;6894;52.196;9.904;2023-08-31T10:12:45;2.77;;;2.57;;
13641;SDS011;6894;52.196;9.904;2023-08-31T10:15:15;3.67;;;2.57;;
13641;SDS011;6894;52.196;9.904;2023-08-31T10:17:42;5.90;;;2.57;;
13641;SDS011;6894;52.196;9.904;2023-08-31T10:20:10;2.97;;;2.10;;
13641;SDS011;6894;52.196;9.904;2023-08-31T10:22:39;2.57;;;1.70;;
13641;SDS011;6894;52.196;9.904;2023-08-31T10:25:06;2.03;;;1.67;;
13641;SDS011;6894;52.196;9.904;2023-08-31T10:27:36;1.97;;;1.50;;
13641;SDS011;6894;52.196;9.904;2023-08-31T10:33:19;3.13;;;1.80;;
13641;SDS011;6894;52.196;9.904;2023-08-31T10:35:48;2.93;;;2.37;;
13641;SDS011;6894;52.196;9.904;2023-08-31T10:38:16;2.30;;;2.10;;
13641;SDS011;6894;52.196;9.904;2023-08-31T10:40:59;2.63;;;2.43;;
13641;SDS011;6894;52.196;9.904;2023-08-31T10:43:45;6.07;;;3.07;;
13641;SDS011;6894;52.196;9.904;2023-08-31T10:46:16;5.23;;;3.00;;
13641;SDS011;6894;52.196;9.904;2023-08-31T10:48:53;4.77;;;3.23;;
13641;SDS011;6894;52.196;9.904;2023-08-31T10:51:21;4.57;;;2.93;;
13641;SDS011;6894;52.196;9.904;2023-08-31T10:53:49;3.23;;;2.43;;
13641;SDS011;6894;52.196;9.904;2023-08-31T10:56:16;3.30;;;2.70;;
13641;SDS011;6894;52.196;9.904;2023-08-31T10:58:43;2.83;;;2.57;;
13641;SDS011;6894;52.196;9.904;2023-08-31T11:04:21;2.27;;;2.07;;
13641;SDS011;6894;52.196;9.904;2023-08-31T11:06:49;3.23;;;2.40;;
13641;SDS011;6894;52.196;9.904;2023-08-31T11:09:31;5.00;;;2.60;;
13641;SDS011;6894;52.196;9.904;2023-08-31T11:11:58;3.60;;;2.67;;
13641;SDS011;6894;52.196;9.904;2023-08-31T11:14:25;3.80;;;2.87;;
13641;SDS011;6894;52.196;9.904;2023-08-31T11:16:53;3.50;;;2.73;;
13641;SDS011;6894;52.196;9.904;2023-08-31T11:19:20;3.77;;;3.00;;
13641;SDS011;6894;52.196;9.904;2023-08-31T11:21:47;2.87;;;2.60;;
13641;SDS011;6894;52.196;9.904;2023-08-31T11:24:15;4.70;;;3.50;;
13641;SDS011;6894;52.196;9.904;2023-08-31T11:26:43;3.60;;;3.00;;
13641;SDS011;6894;52.196;9.904;2023-08-31T11:29:10;3.77;;;3.47;;
13641;SDS011;6894;52.196;9.904;2023-08-31T11:31:37;4.10;;;3.33;;
13641;SDS011;6894;52.196;9.904;2023-08-31T11:34:07;3.03;;;2.70;;
13641;SDS011;6894;52.196;9.904;2023-08-31T11:36:39;3.33;;;3.03;;
13641;SDS011;6894;52.196;9.904;2023-08-31T11:39:08;4.00;;;3.13;;
13641;SDS011;6894;52.196;9.904;2023-08-31T11:41:36;4.23;;;3.83;;
13641;SDS011;6894;52.196;9.904;2023-08-31T11:44:06;4.17;;;3.50;;
13641;SDS011;6894;52.196;9.904;2023-08-31T11:46:34;3.30;;;3.00;;
13641;SDS011;6894;52.196;9.904;2023-08-31T11:49:01;5.37;;;3.10;;
13641;SDS011;6894;52.196;9.904;2023-08-31T11:51:30;3.13;;;2.83;;
13641;SDS011;6894;52.196;9.904;2023-08-31T11:53:59;4.10;;;3.33;;
13641;SDS011;6894;52.196;9.904;2023-08-31T11:56:28;3.77;;;3.10;;
13641;SDS011;6894;52.196;9.904;2023-08-31T11:59:06;2.20;;;2.10;;
13641;SDS011;6894;52.196;9.904;2023-08-31T12:01:37;2.90;;;2.60;;
13641;SDS011;6894;52.196;9.904;2023-08-31T12:04:09;3.50;;;2.27;;
13641;SDS011;6894;52.196;9.904;2023-08-31T12:06:39;3.10;;;2.63;;
13641;SDS011;6894;52.196;9.904;2023-08-31T12:09:06;3.30;;;2.40;;
13641;SDS011;6894;52.196;9.904;2023-08-31T12:11:33;3.77;;;2.13;;
13641;SDS011;6894;52.196;9.904;2023-08-31T12:14:00;2.53;;;2.20;;
13641;SDS011;6894;52.196;9.904;2023-08-31T12:16:32;2.10;;;1.90;;
13641;SDS011;6894;52.196;9.904;2023-08-31T12:19:01;1.70;;;1.30;;
13641;SDS011;6894;52.196;9.904;2023-08-31T12:21:29;1.50;;;1.40;;
13641;SDS011;6894;52.196;9.904;2023-08-31T12:23:58;2.73;;;1.70;;
13641;SDS011;6894;52.196;9.904;2023-08-31T12:26:24;2.53;;;1.50;;
13641;SDS011;6894;52.196;9.904;2023-08-31T12:28:51;1.87;;;1.30;;
13641;SDS011;6894;52.196;9.904;2023-08-31T12:31:18;1.60;;;1.50;;
13641;SDS011;6894;52.196;9.904;2023-08-31T12:33:45;2.47;;;1.47;;
13641;SDS011;6894;52.196;9.904;2023-08-31T12:36:12;1.43;;;1.33;;
13641;SDS011;6894;52.196;9.904;2023-08-31T12:38:39;3.03;;;1.23;;
13641;SDS011;6894;52.196;9.904;2023-08-31T12:41:07;1.63;;;1.07;;
13641;SDS011;6894;52.196;9.904;2023-08-31T12:43:34;1.00;;;0.90;;
13641;SDS011;6894;52.196;9.904;2023-08-31T12:46:00;2.50;;;0.93;;
13641;SDS011;6894;52.196;9.904;2023-08-31T12:48:30;1.10;;;0.67;;
13641;SDS011;6894;52.196;9.904;2023-08-31T12:50:57;0.90;;;0.50;;
13641;SDS011;6894;52.196;9.904;2023-08-31T12:53:24;1.43;;;0.50;;
13641;SDS011;6894;52.196;9.904;2023-08-31T12:55:52;0.60;;;0.50;;
13641;SDS011;6894;52.196;9.904;2023-08-31T12:58:20;1.53;;;0.90;;
13641;SDS011;6894;52.196;9.904;2023-08-31T13:00:47;1.47;;;0.80;;
13641;SDS011;6894;52.196;9.904;2023-08-31T13:03:15;1.40;;;0.80;;
13641;SDS011;6894;52.196;9.904;2023-08-31T13:05:42;1.50;;;0.70;;
13641;SDS011;6894;52.196;9.904;2023-08-31T13:08:09;1.73;;;0.73;;
13641;SDS011;6894;52.196;9.904;2023-08-31T13:10:35;0.70;;;0.70;;
13641;SDS011;6894;52.196;9.904;2023-08-31T13:13:02;0.53;;;0.53;;
13641;SDS011;6894;52.196;9.904;2023-08-31T13:15:32;1.50;;;1.00;;
13641;SDS011;6894;52.196;9.904;2023-08-31T13:17:59;1.00;;;0.70;;
13641;SDS011;6894;52.196;9.904;2023-08-31T13:20:26;2.27;;;0.90;;
13641;SDS011;6894;52.196;9.904;2023-08-31T13:22:53;1.67;;;0.80;;
13641;SDS011;6894;52.196;9.904;2023-08-31T13:25:19;0.90;;;0.90;;
13641;SDS011;6894;52.196;9.904;2023-08-31T13:27:46;2.20;;;0.90;;
13641;SDS011;6894;52.196;9.904;2023-08-31T13:30:13;1.47;;;0.90;;
13641;SDS011;6894;52.196;9.904;2023-08-31T13:32:41;3.37;;;1.07;;
13641;SDS011;6894;52.196;9.904;2023-08-31T13:35:09;2.07;;;1.17;;
13641;SDS011;6894;52.196;9.904;2023-08-31T13:37:36;2.77;;;1.03;;
13641;SDS011;6894;52.196;9.904;2023-08-31T13:40:03;2.87;;;1.40;;
13641;SDS011;6894;52.196;9.904;2023-08-31T13:42:33;1.60;;;1.10;;
13641;SDS011;6894;52.196;9.904;2023-08-31T13:45:03;1.53;;;1.00;;
13641;SDS011;6894;52.196;9.904;2023-08-31T13:47:31;3.17;;;1.30;;
13641;SDS011;6894;52.196;9.904;2023-08-31T13:49:59;1.70;;;1.03;;
13641;SDS011;6894;52.196;9.904;2023-08-31T13:52:27;2.53;;;1.50;;
13641;SDS011;6894;52.196;9.904;2023-08-31T13:54:54;2.07;;;1.40;;
13641;SDS011;6894;52.196;9.904;2023-08-31T13:57:20;2.33;;;0.90;;
13641;SDS011;6894;52.196;9.904;2023-08-31T13:59:47;2.30;;;0.50;;
13641;SDS011;6894;52.196;9.904;2023-08-31T14:02:14;2.23;;;0.60;;
13641;SDS011;6894;52.196;9.904;2023-08-31T14:04:41;0.80;;;0.50;;
13641;SDS011;6894;52.196;9.904;2023-08-31T14:07:09;1.77;;;0.70;;
13641;SDS011;6894;52.196;9.904;2023-08-31T14:09:36;1.00;;;0.40;;
13641;SDS011;6894;52.196;9.904;2023-08-31T14:12:02;0.93;;;0.60;;
13641;SDS011;6894;52.196;9.904;2023-08-31T14:14:29;2.00;;;0.57;;
13641;SDS011;6894;52.196;9.904;2023-08-31T14:16:56;2.50;;;0.60;;
13641;SDS011;6894;52.196;9.904;2023-08-31T14:19:23;0.43;;;0.40;;
13641;SDS011;6894;52.196;9.904;2023-08-31T14:21:49;1.43;;;0.37;;
13641;SDS011;6894;52.196;9.904;2023-08-31T14:24:19;2.20;;;1.10;;
13641;SDS011;6894;52.196;9.904;2023-08-31T14:26:46;2.30;;;0.60;;
13641;SDS011;6894;52.196;9.904;2023-08-31T14:29:13;1.03;;;0.50;;
13641;SDS011;6894;52.196;9.904;2023-08-31T14:31:39;1.90;;;0.40;;
13641;SDS011;6894;52.196;9.904;2023-08-31T14:34:06;1.20;;;0.40;;
13641;SDS011;6894;52.196;9.904;2023-08-31T14:36:33;1.83;;;0.50;;
13641;SDS011;6894;52.196;9.904;2023-08-31T14:38:59;0.80;;;0.40;;
13641;SDS011;6894;52.196;9.904;2023-08-31T14:41:29;1.50;;;0.43;;
13641;SDS011;6894;52.196;9.904;2023-08-31T14:43:56;0.97;;;0.40;;
13641;SDS011;6894;52.196;9.904;2023-08-31T14:46:23;2.20;;;0.67;;
13641;SDS011;6894;52.196;9.904;2023-08-31T14:48:49;1.57;;;0.50;;
13641;SDS011;6894;52.196;9.904;2023-08-31T14:51:16;3.07;;;0.63;;
13641;SDS011;6894;52.196;9.904;2023-08-31T14:53:43;1.20;;;0.53;;
13641;SDS011;6894;52.196;9.904;2023-08-31T14:56:10;2.80;;;0.70;;
13641;SDS011;6894;52.196;9.904;2023-08-31T14:58:38;2.30;;;0.60;;
13641;SDS011;6894;52.196;9.904;2023-08-31T15:01:05;2.37;;;0.47;;